createdAt,value
2022-10-22T00:00:17.380Z,15.80
2022-10-22T00:02:44.644Z,15.80
2022-10-22T00:05:11.507Z,15.80
2022-10-22T00:07:38.699Z,15.70
2022-10-22T00:10:06.960Z,15.70
2022-10-22T00:12:34.116Z,15.70
2022-10-22T00:15:00.833Z,15.70
2022-10-22T00:17:28.919Z,15.70
2022-10-22T00:19:55.621Z,15.60
2022-10-22T00:22:22.311Z,15.60
2022-10-22T00:24:49.770Z,15.60
2022-10-22T00:27:17.900Z,15.60
2022-10-22T00:29:44.686Z,15.60
2022-10-22T00:32:11.381Z,15.60
2022-10-22T00:34:38.127Z,15.50
2022-10-22T00:37:04.934Z,15.50
2022-10-22T00:39:32.448Z,15.50
2022-10-22T00:41:59.766Z,15.50
2022-10-22T00:45:04.882Z,15.50
2022-10-22T00:47:34.346Z,15.40
2022-10-22T00:52:36.180Z,15.40
2022-10-22T00:55:04.120Z,15.40
2022-10-22T00:57:31.337Z,15.30
2022-10-22T00:59:58.928Z,15.40
2022-10-22T01:02:25.831Z,15.30
2022-10-22T01:04:52.692Z,15.30
2022-10-22T01:07:21.832Z,15.30
2022-10-22T01:10:08.376Z,15.30
2022-10-22T01:12:53.797Z,15.30
2022-10-22T01:15:31.682Z,15.30
2022-10-22T01:17:58.427Z,15.30
2022-10-22T01:20:34.218Z,15.30
2022-10-22T01:23:13.220Z,15.20
2022-10-22T01:26:19.056Z,15.20
2022-10-22T01:29:26.327Z,15.20
2022-10-22T01:31:57.060Z,15.20
2022-10-22T01:34:27.045Z,15.20
2022-10-22T01:36:55.723Z,15.10
2022-10-22T01:39:23.444Z,15.10
2022-10-22T01:41:50.233Z,15.10
2022-10-22T01:47:30.821Z,15.00
2022-10-22T01:50:11.625Z,15.00
2022-10-22T01:53:02.596Z,15.00
2022-10-22T01:55:53.572Z,15.00
2022-10-22T01:58:43.977Z,14.90
2022-10-22T02:01:16.077Z,14.90
2022-10-22T02:03:55.903Z,14.90
2022-10-22T02:06:24.443Z,14.90
2022-10-22T02:08:51.481Z,14.80
2022-10-22T02:11:18.284Z,14.80
2022-10-22T02:13:48.814Z,14.80
2022-10-22T02:16:36.806Z,14.80
2022-10-22T02:19:14.564Z,14.80
2022-10-22T02:21:42.869Z,14.80
2022-10-22T02:24:10.034Z,14.70
2022-10-22T02:26:43.205Z,14.70
2022-10-22T02:29:22.778Z,14.70
2022-10-22T02:31:52.092Z,14.70
2022-10-22T02:34:23.006Z,14.70
2022-10-22T02:36:50.791Z,14.70
2022-10-22T02:39:19.178Z,14.60
2022-10-22T02:41:46.148Z,14.70
2022-10-22T02:44:12.868Z,14.70
2022-10-22T02:46:42.063Z,14.70
2022-10-22T02:49:09.751Z,14.60
2022-10-22T02:51:36.473Z,14.60
2022-10-22T02:54:03.334Z,14.60
2022-10-22T02:56:30.485Z,14.60
2022-10-22T02:58:57.174Z,14.60
2022-10-22T03:01:24.813Z,14.60
2022-10-22T03:06:37.321Z,14.60
2022-10-22T03:09:05.786Z,14.60
2022-10-22T03:11:34.559Z,14.50
2022-10-22T03:14:01.585Z,14.50
2022-10-22T03:16:32.969Z,14.50
2022-10-22T03:19:01.849Z,14.50
2022-10-22T03:21:33.433Z,14.50
2022-10-22T03:24:03.664Z,14.50
2022-10-22T03:26:30.430Z,14.50
2022-10-22T03:28:57.686Z,14.50
2022-10-22T03:31:24.985Z,14.50
2022-10-22T03:33:51.665Z,14.50
2022-10-22T03:36:18.785Z,14.50
2022-10-22T03:38:45.559Z,14.50
2022-10-22T03:41:12.316Z,14.50
2022-10-22T03:43:41.057Z,14.50
2022-10-22T03:46:07.737Z,14.50
2022-10-22T03:48:34.638Z,14.50
2022-10-22T03:51:01.398Z,14.50
2022-10-22T03:53:31.604Z,14.40
2022-10-22T03:55:58.424Z,14.40
2022-10-22T03:58:25.189Z,14.40
2022-10-22T04:00:51.969Z,14.40
2022-10-22T04:03:18.728Z,14.40
2022-10-22T04:05:45.434Z,14.40
2022-10-22T04:08:12.583Z,14.40
2022-10-22T04:10:40.113Z,14.50
2022-10-22T04:13:14.320Z,14.40
2022-10-22T04:15:41.173Z,14.40
2022-10-22T04:18:07.909Z,14.40
2022-10-22T04:20:34.941Z,14.40
2022-10-22T04:23:01.626Z,14.40
2022-10-22T04:25:28.540Z,14.40
2022-10-22T04:27:55.281Z,14.40
2022-10-22T04:30:23.277Z,14.40
2022-10-22T04:32:50.006Z,14.40
2022-10-22T04:35:16.771Z,14.30
2022-10-22T04:37:43.542Z,14.40
2022-10-22T04:40:11.145Z,14.30
2022-10-22T04:42:37.897Z,14.30
2022-10-22T04:45:06.016Z,14.30
2022-10-22T04:47:32.704Z,14.30
2022-10-22T04:49:59.695Z,14.20
2022-10-22T04:52:26.432Z,14.20
2022-10-22T04:54:53.189Z,14.20
2022-10-22T04:57:20.022Z,14.20
2022-10-22T04:59:46.852Z,14.20
2022-10-22T05:02:15.521Z,14.10
2022-10-22T05:04:44.289Z,14.20
2022-10-22T05:07:14.762Z,14.10
2022-10-22T05:09:41.575Z,14.20
2022-10-22T05:12:08.287Z,14.10
2022-10-22T05:14:35.047Z,14.10
2022-10-22T05:17:01.793Z,14.10
2022-10-22T05:19:30.833Z,14.10
2022-10-22T05:22:00.062Z,14.10
2022-10-22T05:24:28.183Z,14.10
2022-10-22T05:26:57.220Z,14.10
2022-10-22T05:29:24.120Z,14.00
2022-10-22T05:31:51.875Z,14.00
2022-10-22T05:34:18.854Z,14.00
2022-10-22T05:36:46.032Z,14.00
2022-10-22T05:39:12.982Z,14.00
2022-10-22T05:41:49.563Z,13.90
2022-10-22T05:44:16.338Z,13.90
2022-10-22T05:46:43.500Z,13.90
2022-10-22T05:49:13.480Z,13.90
2022-10-22T05:51:40.268Z,13.90
2022-10-22T05:54:08.414Z,13.90
2022-10-22T05:56:36.791Z,13.90
2022-10-22T05:59:04.366Z,13.90
2022-10-22T06:01:32.973Z,13.80
2022-10-22T06:04:02.055Z,13.80
2022-10-22T06:06:33.643Z,13.80
2022-10-22T06:09:05.869Z,13.90
2022-10-22T06:11:35.122Z,13.90
2022-10-22T06:14:04.103Z,13.90
2022-10-22T06:16:32.362Z,13.90
2022-10-22T06:19:03.516Z,13.90
2022-10-22T06:21:31.475Z,14.00
2022-10-22T06:23:59.558Z,14.00
2022-10-22T06:26:26.644Z,14.00
2022-10-22T06:28:54.301Z,14.00
2022-10-22T06:31:21.295Z,14.00
2022-10-22T06:33:48.140Z,14.00
2022-10-22T06:36:19.382Z,14.00
2022-10-22T06:38:46.231Z,14.10
2022-10-22T06:41:15.685Z,14.00
2022-10-22T06:43:49.857Z,14.00
2022-10-22T06:46:20.249Z,14.10
2022-10-22T06:48:51.975Z,14.00
2022-10-22T06:51:19.433Z,14.10
2022-10-22T06:53:46.483Z,14.10
2022-10-22T06:56:16.850Z,14.10
2022-10-22T06:58:45.427Z,14.10
2022-10-22T07:01:15.087Z,14.20
2022-10-22T07:03:42.895Z,14.20
2022-10-22T07:06:14.529Z,14.30
2022-10-22T07:08:42.123Z,14.20
2022-10-22T07:11:20.507Z,14.30
2022-10-22T07:13:48.505Z,14.30
2022-10-22T07:16:17.882Z,14.30
2022-10-22T07:18:45.808Z,14.30
2022-10-22T07:21:14.247Z,14.30
2022-10-22T07:23:41.077Z,14.30
2022-10-22T07:26:08.848Z,14.30
2022-10-22T07:28:38.104Z,14.40
2022-10-22T07:31:05.723Z,14.40
2022-10-22T07:33:32.862Z,14.40
2022-10-22T07:36:01.202Z,14.40
2022-10-22T07:38:30.185Z,14.40
2022-10-22T07:40:57.505Z,14.40
2022-10-22T07:43:24.395Z,14.60
2022-10-22T07:45:56.449Z,14.60
2022-10-22T07:48:23.751Z,14.60
2022-10-22T07:50:51.293Z,14.60
2022-10-22T07:53:18.193Z,14.60
2022-10-22T07:55:48.272Z,14.60
2022-10-22T07:58:15.314Z,14.70
2022-10-22T08:00:42.091Z,14.70
2022-10-22T08:03:11.794Z,14.70
2022-10-22T08:05:39.517Z,14.70
2022-10-22T08:08:07.317Z,14.70
2022-10-22T08:10:34.996Z,14.80
2022-10-22T08:13:01.764Z,14.80
2022-10-22T08:15:28.575Z,14.80
2022-10-22T08:17:55.334Z,14.90
2022-10-22T08:20:22.097Z,14.90
2022-10-22T08:22:49.195Z,14.90
2022-10-22T08:25:16.519Z,15.00
2022-10-22T08:27:43.711Z,15.00
2022-10-22T08:30:11.310Z,14.90
2022-10-22T08:32:38.119Z,14.90
2022-10-22T08:35:05.172Z,15.00
2022-10-22T08:37:32.792Z,15.00
2022-10-22T08:39:59.691Z,15.00
2022-10-22T08:43:11.155Z,15.00
2022-10-22T08:45:53.344Z,15.10
2022-10-22T08:48:42.862Z,15.10
2022-10-22T08:51:17.269Z,15.20
2022-10-22T08:53:49.903Z,15.10
2022-10-22T08:56:16.691Z,15.20
2022-10-22T08:58:50.045Z,15.30
2022-10-22T09:01:29.009Z,15.40
2022-10-22T09:04:25.413Z,15.40
2022-10-22T09:06:54.457Z,15.40
2022-10-22T09:09:22.301Z,15.50
2022-10-22T09:11:51.628Z,15.50
2022-10-22T09:14:23.395Z,15.50
2022-10-22T09:17:13.479Z,15.60
2022-10-22T09:19:45.618Z,15.70
2022-10-22T09:22:50.997Z,15.70
2022-10-22T09:25:26.752Z,15.80
2022-10-22T09:27:58.412Z,15.80
2022-10-22T09:30:31.280Z,15.80
2022-10-22T09:33:06.190Z,15.90
2022-10-22T09:35:59.374Z,15.90
2022-10-22T09:38:29.073Z,15.90
2022-10-22T09:40:58.837Z,16.00
2022-10-22T09:43:26.181Z,16.00
2022-10-22T09:46:01.618Z,16.10
2022-10-22T09:48:32.248Z,16.10
2022-10-22T09:51:23.464Z,16.20
2022-10-22T09:54:01.973Z,16.30
2022-10-22T09:56:41.846Z,16.30
2022-10-22T09:59:16.378Z,16.40
2022-10-22T10:01:44.764Z,16.40
2022-10-22T10:04:15.161Z,16.50
2022-10-22T10:06:44.014Z,16.40
2022-10-22T10:09:18.207Z,16.40
2022-10-22T10:12:02.139Z,16.50
2022-10-22T10:14:53.767Z,16.70
2022-10-22T10:17:33.594Z,16.70
2022-10-22T10:20:22.380Z,16.70
2022-10-22T10:22:49.374Z,16.70
2022-10-22T10:25:19.997Z,16.80
2022-10-22T10:27:57.269Z,16.80
2022-10-22T10:30:24.599Z,16.80
2022-10-22T10:33:10.439Z,16.90
2022-10-22T10:35:41.271Z,16.90
2022-10-22T10:38:20.134Z,17.10
2022-10-22T10:40:53.428Z,17.00
2022-10-22T10:43:48.857Z,17.10
2022-10-22T10:46:49.463Z,17.00
2022-10-22T10:49:23.457Z,17.00
2022-10-22T10:51:50.332Z,17.00
2022-10-22T10:54:49.343Z,17.00
2022-10-22T10:57:36.269Z,17.00
2022-10-22T11:00:06.982Z,17.10
2022-10-22T11:02:52.925Z,17.20
2022-10-22T11:05:19.637Z,17.30
2022-10-22T11:07:56.106Z,17.30
2022-10-22T11:13:22.451Z,17.40
2022-10-22T11:15:56.207Z,17.40
2022-10-22T11:18:34.309Z,17.30
2022-10-22T11:21:07.177Z,17.40
2022-10-22T11:23:40.205Z,17.50
2022-10-22T11:26:14.966Z,17.60
2022-10-22T11:28:45.751Z,17.70
2022-10-22T11:31:17.713Z,17.70
2022-10-22T11:33:54.587Z,17.70
2022-10-22T11:36:28.758Z,17.80
2022-10-22T11:38:57.744Z,17.90
2022-10-22T11:41:32.187Z,17.90
2022-10-22T11:44:11.675Z,18.00
2022-10-22T11:46:40.647Z,18.10
2022-10-22T11:49:13.336Z,18.20
2022-10-22T11:51:43.102Z,18.30
2022-10-22T11:54:44.761Z,18.50
2022-10-22T11:57:14.957Z,18.60
2022-10-22T11:59:47.430Z,18.70
2022-10-22T12:02:27.810Z,18.80
2022-10-22T12:05:24.974Z,18.90
2022-10-22T12:08:00.174Z,18.90
2022-10-22T12:10:36.217Z,18.90
2022-10-22T12:13:12.501Z,18.90
2022-10-22T12:15:52.033Z,18.80
2022-10-22T12:18:19.305Z,18.70
2022-10-22T12:20:51.398Z,18.80
2022-10-22T12:23:18.395Z,18.90
2022-10-22T12:25:45.673Z,19.00
2022-10-22T12:28:16.298Z,19.00
2022-10-22T12:30:43.106Z,19.00
2022-10-22T12:33:20.676Z,19.10
2022-10-22T12:35:51.846Z,19.10
2022-10-22T12:38:22.107Z,19.10
2022-10-22T12:40:51.464Z,19.30
2022-10-22T12:43:20.453Z,19.40
2022-10-22T12:45:48.739Z,19.50
2022-10-22T12:48:21.902Z,19.60
2022-10-22T12:50:52.173Z,19.50
2022-10-22T12:53:33.124Z,19.40
2022-10-22T12:56:03.784Z,19.60
2022-10-22T12:58:37.808Z,19.70
2022-10-22T13:01:04.946Z,19.80
2022-10-22T13:03:44.804Z,19.90
2022-10-22T13:06:24.076Z,19.80
2022-10-22T13:09:00.488Z,19.90
2022-10-22T13:11:55.569Z,20.10
2022-10-22T13:14:25.954Z,20.10
2022-10-22T13:17:10.216Z,20.00
2022-10-22T13:19:36.909Z,20.10
2022-10-22T13:22:03.782Z,20.00
2022-10-22T13:24:33.930Z,20.10
2022-10-22T13:27:00.659Z,20.40
2022-10-22T13:29:27.563Z,20.60
2022-10-22T13:32:02.333Z,20.70
2022-10-22T13:34:29.203Z,20.90
2022-10-22T13:36:55.961Z,21.10
2022-10-22T13:39:24.453Z,21.00
2022-10-22T13:41:51.694Z,21.00
2022-10-22T13:44:20.195Z,21.10
2022-10-22T13:46:47.954Z,21.00
2022-10-22T13:49:20.182Z,20.90
2022-10-22T13:51:47.606Z,20.70
2022-10-22T13:54:18.217Z,20.60
2022-10-22T13:56:45.448Z,20.60
2022-10-22T13:59:12.231Z,20.80
2022-10-22T14:01:39.268Z,20.90
2022-10-22T14:04:07.295Z,21.00
2022-10-22T14:06:37.557Z,21.10
2022-10-22T14:09:11.342Z,21.30
2022-10-22T14:11:38.130Z,21.50
2022-10-22T14:14:08.984Z,21.60
2022-10-22T14:16:37.093Z,21.70
2022-10-22T14:19:04.912Z,21.60
2022-10-22T14:21:35.850Z,21.50
2022-10-22T14:24:02.666Z,21.50
2022-10-22T14:26:33.166Z,21.70
2022-10-22T14:29:15.969Z,21.60
2022-10-22T14:31:44.511Z,21.50
2022-10-22T14:34:13.978Z,21.80
2022-10-22T14:36:43.772Z,21.80
2022-10-22T14:39:10.962Z,21.50
2022-10-22T14:41:37.963Z,21.40
2022-10-22T14:44:05.303Z,21.40
2022-10-22T14:46:32.127Z,21.40
2022-10-22T14:48:59.018Z,21.40
2022-10-22T14:51:26.134Z,21.50
2022-10-22T14:53:52.909Z,21.50
2022-10-22T14:56:21.558Z,21.60
2022-10-22T14:58:48.867Z,21.60
2022-10-22T15:01:17.402Z,21.60
2022-10-22T15:03:44.225Z,21.70
2022-10-22T15:06:11.583Z,21.90
2022-10-22T15:08:39.490Z,22.10
2022-10-22T15:11:13.000Z,22.00
2022-10-22T15:13:41.425Z,21.90
2022-10-22T15:16:10.490Z,22.00
2022-10-22T15:18:37.947Z,21.90
2022-10-22T15:21:08.336Z,22.00
2022-10-22T15:23:36.400Z,22.10
2022-10-22T15:26:03.130Z,22.20
2022-10-22T15:28:30.415Z,22.20
2022-10-22T15:30:59.456Z,22.50
2022-10-22T15:33:28.546Z,22.30
2022-10-22T15:35:56.467Z,22.40
2022-10-22T15:41:05.563Z,22.80
2022-10-22T15:43:33.904Z,23.00
2022-10-22T15:46:13.498Z,22.90
2022-10-22T15:48:40.612Z,22.80
2022-10-22T15:51:09.630Z,22.50
2022-10-22T15:53:36.779Z,22.20
2022-10-22T15:56:07.125Z,21.80
2022-10-22T15:58:34.009Z,21.90
2022-10-22T16:01:08.224Z,21.70
2022-10-22T16:03:35.534Z,21.80
2022-10-22T16:06:03.236Z,21.80
2022-10-22T16:08:30.045Z,21.90
2022-10-22T16:10:58.673Z,21.90
2022-10-22T16:13:26.357Z,21.90
2022-10-22T16:15:53.602Z,21.80
2022-10-22T16:18:21.458Z,21.80
2022-10-22T16:20:48.250Z,21.80
2022-10-22T16:23:18.709Z,21.70
2022-10-22T16:25:46.383Z,21.40
2022-10-22T16:28:13.802Z,21.30
2022-10-22T16:30:41.817Z,21.40
2022-10-22T16:33:10.616Z,21.40
2022-10-22T16:35:41.859Z,21.40
2022-10-22T16:38:10.788Z,21.40
2022-10-22T16:40:37.709Z,21.40
2022-10-22T16:43:04.571Z,21.40
2022-10-22T16:45:31.396Z,21.40
2022-10-22T16:47:58.189Z,21.30
2022-10-22T16:50:25.233Z,21.10
2022-10-22T16:52:52.116Z,20.90
2022-10-22T16:55:19.368Z,20.90
2022-10-22T16:57:53.766Z,20.80
2022-10-22T17:00:22.807Z,20.80
2022-10-22T17:02:53.684Z,20.80
2022-10-22T17:05:20.957Z,20.70
2022-10-22T17:07:47.695Z,20.70
2022-10-22T17:10:15.392Z,20.70
2022-10-22T17:12:44.317Z,20.70
2022-10-22T17:15:11.299Z,20.60
2022-10-22T17:17:39.232Z,20.50
2022-10-22T17:20:06.949Z,20.40
2022-10-22T17:22:33.784Z,20.30
2022-10-22T17:25:13.388Z,20.40
2022-10-22T17:27:41.635Z,20.30
2022-10-22T17:30:10.513Z,20.30
2022-10-22T17:32:39.014Z,20.30
2022-10-22T17:35:07.434Z,20.20
2022-10-22T17:37:35.076Z,20.00
2022-10-22T17:40:03.788Z,20.00
2022-10-22T17:42:31.196Z,20.00
2022-10-22T17:44:58.221Z,19.80
2022-10-22T17:47:25.066Z,19.80
2022-10-22T17:49:52.028Z,19.80
2022-10-22T17:52:19.603Z,19.80
2022-10-22T17:54:48.930Z,19.70
2022-10-22T17:57:16.013Z,19.70
2022-10-22T17:59:42.910Z,19.60
2022-10-22T18:02:15.718Z,19.60
2022-10-22T18:04:42.435Z,19.60
2022-10-22T18:07:09.677Z,19.50
2022-10-22T18:09:36.792Z,19.50
2022-10-22T18:12:03.678Z,19.30
2022-10-22T18:14:30.438Z,19.20
2022-10-22T18:16:57.567Z,19.20
2022-10-22T18:19:24.738Z,19.10
2022-10-22T18:21:51.736Z,19.10
2022-10-22T18:24:18.582Z,19.00
2022-10-22T18:26:45.763Z,18.90
2022-10-22T18:29:18.294Z,18.90
2022-10-22T18:31:45.661Z,18.90
2022-10-22T18:34:12.936Z,18.80
2022-10-22T18:36:41.238Z,18.70
2022-10-22T18:39:08.139Z,18.60
2022-10-22T18:41:36.240Z,18.50
2022-10-22T18:44:05.541Z,18.50
2022-10-22T18:46:34.905Z,18.40
2022-10-22T18:49:01.838Z,18.40
2022-10-22T18:51:34.676Z,18.40
2022-10-22T18:54:18.299Z,18.40
2022-10-22T18:56:49.326Z,18.40
2022-10-22T18:59:21.647Z,18.20
2022-10-22T19:01:52.197Z,18.20
2022-10-22T19:04:19.128Z,18.00
2022-10-22T19:06:46.153Z,17.90
2022-10-22T19:09:18.112Z,17.80
2022-10-22T19:11:45.580Z,17.80
2022-10-22T19:14:13.751Z,17.70
2022-10-22T19:16:41.067Z,17.70
2022-10-22T19:19:08.286Z,17.70
2022-10-22T19:21:35.271Z,17.80
2022-10-22T19:24:02.429Z,17.70
2022-10-22T19:26:30.237Z,17.60
2022-10-22T19:28:57.867Z,17.60
2022-10-22T19:31:25.927Z,17.60
2022-10-22T19:33:55.425Z,17.50
2022-10-22T19:36:27.967Z,17.50
2022-10-22T19:38:55.649Z,17.40
2022-10-22T19:41:24.592Z,17.40
2022-10-22T19:43:53.143Z,17.30
2022-10-22T19:46:20.938Z,17.30
2022-10-22T19:48:52.008Z,17.20
2022-10-22T19:54:06.821Z,17.10
2022-10-22T19:56:35.355Z,17.10
2022-10-22T19:59:07.351Z,17.10
2022-10-22T20:01:34.688Z,17.10
2022-10-22T20:04:07.679Z,17.10
2022-10-22T20:06:34.799Z,17.00
2022-10-22T20:09:02.082Z,17.00
2022-10-22T20:11:29.728Z,16.90
2022-10-22T20:13:57.333Z,16.70
2022-10-22T20:16:28.650Z,16.70
2022-10-22T20:19:00.179Z,16.70
2022-10-22T20:21:27.901Z,16.70
2022-10-22T20:23:56.413Z,16.70
2022-10-22T20:26:24.511Z,16.70
2022-10-22T20:28:52.026Z,16.70
2022-10-22T20:31:20.602Z,16.60
2022-10-22T20:33:51.019Z,16.50
2022-10-22T20:36:22.645Z,16.50
2022-10-22T20:38:50.976Z,16.50
2022-10-22T20:41:20.937Z,16.50
2022-10-22T20:43:49.315Z,16.50
2022-10-22T20:46:20.493Z,16.40
2022-10-22T20:48:47.459Z,16.40
2022-10-22T20:51:14.318Z,16.40
2022-10-22T20:53:41.204Z,16.40
2022-10-22T20:56:08.455Z,16.30
2022-10-22T20:58:35.897Z,16.30
2022-10-22T21:01:09.782Z,16.20
2022-10-22T21:03:37.635Z,16.20
2022-10-22T21:06:05.659Z,16.20
2022-10-22T21:08:32.754Z,16.20
2022-10-22T21:10:59.683Z,16.20
2022-10-22T21:13:26.464Z,16.20
2022-10-22T21:15:53.953Z,16.20
2022-10-22T21:18:20.819Z,16.10
2022-10-22T21:20:47.559Z,16.20
2022-10-22T21:23:14.582Z,16.10
2022-10-22T21:25:43.349Z,16.10
2022-10-22T21:28:11.016Z,16.00
2022-10-22T21:30:44.816Z,16.00
2022-10-22T21:33:11.622Z,16.00
2022-10-22T21:35:38.393Z,15.90
2022-10-22T21:38:07.754Z,15.90
2022-10-22T21:40:37.550Z,15.90
2022-10-22T21:43:04.275Z,15.90
2022-10-22T21:45:31.038Z,15.90
2022-10-22T21:47:57.840Z,15.90
2022-10-22T21:50:24.590Z,15.90
2022-10-22T21:52:51.369Z,15.80
2022-10-22T21:55:18.159Z,15.80
2022-10-22T21:57:45.185Z,15.80
2022-10-22T22:00:13.187Z,15.70
2022-10-22T22:02:40.240Z,15.70
2022-10-22T22:05:07.534Z,15.70
2022-10-22T22:07:34.414Z,15.70
2022-10-22T22:10:01.320Z,15.60
2022-10-22T22:12:28.025Z,15.60
2022-10-22T22:14:54.765Z,15.60
2022-10-22T22:17:21.638Z,15.50
2022-10-22T22:19:48.513Z,15.50
2022-10-22T22:22:15.290Z,15.50
2022-10-22T22:24:42.079Z,15.50
2022-10-22T22:27:08.892Z,15.50
2022-10-22T22:29:35.731Z,15.50
2022-10-22T22:32:02.470Z,15.40
2022-10-22T22:34:31.099Z,15.40
2022-10-22T22:36:57.862Z,15.40
2022-10-22T22:39:24.695Z,15.30
2022-10-22T22:41:51.865Z,15.30
2022-10-22T22:44:18.746Z,15.20
2022-10-22T22:46:45.544Z,15.20
2022-10-22T22:49:13.041Z,15.20
2022-10-22T22:51:39.819Z,15.20
2022-10-22T22:54:06.745Z,15.20
2022-10-22T22:56:34.632Z,15.20
2022-10-22T22:59:02.168Z,15.20
2022-10-22T23:01:36.931Z,15.10
2022-10-22T23:04:16.202Z,15.10
2022-10-22T23:06:43.241Z,15.10
2022-10-22T23:09:13.381Z,15.10
2022-10-22T23:11:41.735Z,15.00
2022-10-22T23:14:11.042Z,15.00
2022-10-22T23:16:40.964Z,15.00
2022-10-22T23:19:08.390Z,15.00
2022-10-22T23:21:39.012Z,15.00
2022-10-22T23:24:08.490Z,14.90
2022-10-22T23:26:38.621Z,14.90
2022-10-22T23:29:08.032Z,14.90
2022-10-22T23:31:34.895Z,14.90
2022-10-22T23:34:01.835Z,14.90
2022-10-22T23:36:29.172Z,14.90
2022-10-22T23:38:55.950Z,14.90
2022-10-22T23:41:22.794Z,14.80
2022-10-22T23:43:50.528Z,14.80
2022-10-22T23:46:17.703Z,14.80
2022-10-22T23:48:45.803Z,14.80
2022-10-22T23:51:15.612Z,14.80
2022-10-22T23:53:43.704Z,14.70
2022-10-22T23:56:13.799Z,14.70
2022-10-22T23:58:42.395Z,14.70
